Darbun, Mississippi
Current Conditions -  °F | °C
As of 10:35 PM on Friday 31 Oct 2014 (Local Time) from KBXA Reporting Station
NA  
Wind Chill: 56°   Ceiling: NA
Heat Index: 56°   Visibility: 10mi
Dew Point: 43°   Wind: 10mph
Humidity: 63%   Direction: 10°N
Pressure: 30.22"   Gusts: NA
Location:  31.1757°N, 89.9852°W
Report Text: KBXA 010335Z AUTO 01009KT 10SM 13/06 A3022 RMK AO2 T01320062
Loading
Personal Weather Stations






























Interactive Weather Map
Tropical Storm Tracking
New forecast layout! Learn more

10-Day Weather Forecast

Advertisements
Track Severe Weather on mobile